Time;durP1;ratioP1;P1;durP2;ratioP2;P2;SDS_P1;SDS_P2;PMS_P1;PMS_P2;Temp;Humidity;BMP_temperature;BMP_pressure;BME280_temperature;BME280_humidity;BME280_pressure;Samples;Min_cycle;Max_cycle;Signal;HPM_P1;HPM_P2
2023/12/16 00:00:51;;;;;;;18.47;7.00;;;9.60;46.10;;;;;;5032583;28;20174;-85
2023/12/16 00:03:17;;;;;;;15.37;6.33;;;9.70;44.10;;;;;;5031699;28;20264;-84
2023/12/16 00:05:43;;;;;;;14.67;5.67;;;9.80;41.00;;;;;;5033263;28;20280;-85
2023/12/16 00:08:08;;;;;;;12.73;6.50;;;9.70;41.10;;;;;;5031595;28;20247;-84
2023/12/16 00:10:34;;;;;;;15.27;5.90;;;9.60;43.60;;;;;;5032084;28;20189;-86
2023/12/16 00:13:00;;;;;;;15.10;6.00;;;9.60;44.60;;;;;;5032703;28;20233;-85
2023/12/16 00:15:25;;;;;;;13.27;6.20;;;9.50;46.00;;;;;;5032416;28;20204;-84
2023/12/16 00:17:51;;;;;;;12.93;5.97;;;9.40;49.00;;;;;;5033179;28;20195;-86
2023/12/16 00:20:17;;;;;;;13.13;5.17;;;9.40;50.70;;;;;;5032276;28;20281;-85
2023/12/16 00:22:44;;;;;;;11.70;5.60;;;9.30;52.90;;;;;;5031666;28;20181;-85
2023/12/16 00:25:10;;;;;;;11.53;5.27;;;9.30;53.60;;;;;;5033024;28;20177;-85
2023/12/16 00:27:36;;;;;;;12.67;5.97;;;9.30;53.50;;;;;;5032539;28;20173;-84
2023/12/16 00:30:02;;;;;;;12.07;5.60;;;9.30;54.90;;;;;;5031803;28;20720;-85
2023/12/16 00:32:28;;;;;;;13.20;5.40;;;9.40;54.00;;;;;;5031446;28;20587;-84
2023/12/16 00:34:54;;;;;;;13.27;5.40;;;9.30;53.00;;;;;;5031739;28;20653;-84
2023/12/16 00:37:20;;;;;;;12.90;5.90;;;9.20;55.00;;;;;;5031828;28;20234;-85
2023/12/16 00:39:45;;;;;;;14.83;5.70;;;9.10;57.60;;;;;;5032095;28;20685;-86
2023/12/16 00:42:11;;;;;;;14.27;5.70;;;9.20;57.70;;;;;;5032245;28;20193;-85
2023/12/16 00:44:37;;;;;;;15.40;5.80;;;9.20;57.00;;;;;;5032589;28;20174;-85
2023/12/16 00:47:03;;;;;;;13.00;5.60;;;9.20;56.90;;;;;;5031489;28;20174;-86
2023/12/16 00:49:29;;;;;;;13.93;5.60;;;9.30;56.50;;;;;;5033500;28;20654;-85
2023/12/16 00:51:58;;;;;;;10.83;6.17;;;9.20;56.00;;;;;;5032670;28;20284;-85
2023/12/16 00:54:25;;;;;;;15.83;6.10;;;9.20;57.80;;;;;;5031227;28;20174;-84
2023/12/16 00:56:51;;;;;;;16.53;6.47;;;9.20;58.50;;;;;;5030155;28;20173;-85
2023/12/16 00:59:16;;;;;;;14.07;6.00;;;9.20;58.90;;;;;;5030630;28;20224;-86
2023/12/16 01:01:42;;;;;;;10.53;5.30;;;9.20;58.10;;;;;;5032156;28;20235;-85
2023/12/16 01:04:09;;;;;;;15.10;6.37;;;9.20;59.10;;;;;;5032004;28;20209;-86
2023/12/16 01:06:34;;;;;;;11.77;5.80;;;9.20;60.10;;;;;;5031274;28;20169;-84
2023/12/16 01:09:00;;;;;;;16.87;6.53;;;9.20;60.70;;;;;;5031616;28;20174;-86
2023/12/16 01:11:26;;;;;;;20.67;5.87;;;9.20;60.40;;;;;;5031128;28;20201;-85
2023/12/16 01:13:51;;;;;;;13.53;6.40;;;9.40;57.90;;;;;;5035669;28;20563;-85
2023/12/16 01:16:17;;;;;;;15.63;6.53;;;9.30;57.50;;;;;;5035850;28;20648;-84
2023/12/16 01:18:44;;;;;;;13.90;6.43;;;9.30;59.90;;;;;;5036227;28;20177;-84
2023/12/16 01:21:09;;;;;;;13.03;6.77;;;9.30;58.00;;;;;;5037023;28;20170;-85
2023/12/16 01:23:38;;;;;;;11.00;5.80;;;9.40;58.30;;;;;;5036151;28;20234;-84
2023/12/16 01:26:04;;;;;;;12.47;6.10;;;9.30;59.80;;;;;;5035355;28;20181;-84
2023/12/16 01:28:33;;;;;;;12.53;6.13;;;9.30;62.00;;;;;;5034818;28;20173;-86
2023/12/16 01:30:59;;;;;;;13.50;6.37;;;9.20;65.60;;;;;;5035133;28;20691;-83
2023/12/16 01:33:24;;;;;;;14.90;6.60;;;9.20;64.60;;;;;;5034617;28;20177;-85
2023/12/16 01:35:50;;;;;;;14.83;6.70;;;9.30;64.60;;;;;;5034810;28;20174;-84
2023/12/16 01:38:16;;;;;;;13.80;6.27;;;9.30;63.40;;;;;;5035333;28;20615;-85
2023/12/16 01:40:41;;;;;;;14.73;6.00;;;9.30;63.30;;;;;;5035476;28;20251;-85
2023/12/16 01:43:08;;;;;;;13.00;6.50;;;9.30;63.10;;;;;;5035393;28;20625;-85
2023/12/16 01:45:34;;;;;;;12.30;6.27;;;9.40;61.00;;;;;;5035357;28;20166;-84
2023/12/16 01:48:02;;;;;;;13.67;6.73;;;9.40;59.90;;;;;;5035221;28;20173;-84
2023/12/16 01:50:29;;;;;;;13.57;6.77;;;9.40;61.10;;;;;;5035104;28;20184;-85
2023/12/16 01:52:56;;;;;;;12.43;6.40;;;9.30;64.50;;;;;;5034840;28;20274;-85
2023/12/16 01:55:22;;;;;;;14.73;6.70;;;9.20;67.70;;;;;;5035191;28;20618;-84
2023/12/16 01:57:48;;;;;;;14.60;6.17;;;9.20;70.30;;;;;;5034704;28;20185;-84
2023/12/16 02:00:14;;;;;;;15.63;6.60;;;9.10;71.60;;;;;;5035096;28;20177;-85
2023/12/16 02:02:41;;;;;;;17.83;6.37;;;9.10;71.30;;;;;;5035035;28;20189;-85
2023/12/16 02:05:10;;;;;;;9.67;5.73;;;9.30;69.20;;;;;;5035013;28;20634;-84
2023/12/16 02:07:35;;;;;;;13.03;6.33;;;9.20;69.90;;;;;;5035173;28;20201;-85
2023/12/16 02:10:01;;;;;;;15.30;6.50;;;9.10;73.00;;;;;;5034911;28;20255;-84
2023/12/16 02:12:27;;;;;;;11.50;5.80;;;9.40;65.80;;;;;;5034725;28;20209;-84
2023/12/16 02:14:53;;;;;;;14.93;6.33;;;9.30;65.00;;;;;;5034932;28;20177;-83
2023/12/16 02:17:19;;;;;;;13.23;6.43;;;9.20;67.90;;;;;;5034417;28;20182;-85
2023/12/16 02:19:47;;;;;;;14.47;6.13;;;9.30;69.30;;;;;;5034229;28;20257;-84
2023/12/16 02:22:13;;;;;;;15.17;6.33;;;9.20;69.60;;;;;;5033947;28;20173;-85
2023/12/16 02:24:41;;;;;;;14.03;6.20;;;9.20;70.00;;;;;;5034538;28;20178;-84
2023/12/16 02:27:08;;;;;;;18.50;6.80;;;9.20;70.20;;;;;;5033469;28;20174;-84
2023/12/16 02:29:33;;;;;;;17.13;6.27;;;9.20;72.60;;;;;;5035289;28;20174;-85
2023/12/16 02:31:59;;;;;;;16.80;6.37;;;9.10;73.20;;;;;;5034561;28;20275;-85
2023/12/16 02:34:25;;;;;;;13.73;5.90;;;9.00;76.20;;;;;;5034187;28;20170;-84
2023/12/16 02:36:51;;;;;;;17.27;6.67;;;9.10;75.70;;;;;;5034501;28;20224;-84
2023/12/16 02:39:17;;;;;;;14.37;6.03;;;9.00;75.40;;;;;;5033197;28;20166;-84
2023/12/16 02:41:43;;;;;;;13.47;5.70;;;9.10;75.40;;;;;;5033787;28;20178;-86
2023/12/16 02:44:09;;;;;;;16.90;6.67;;;9.10;75.00;;;;;;5034420;28;20645;-84
2023/12/16 02:46:34;;;;;;;11.37;6.30;;;9.10;75.30;;;;;;5034138;28;20192;-85
2023/12/16 02:49:00;;;;;;;13.70;6.07;;;9.10;73.40;;;;;;5034903;28;20181;-84
2023/12/16 02:51:26;;;;;;;12.83;5.93;;;9.00;73.10;;;;;;5034163;28;20201;-85
2023/12/16 02:53:53;;;;;;;15.30;6.10;;;8.80;78.50;;;;;;5032019;28;20554;-85
2023/12/16 02:56:18;;;;;;;12.60;6.07;;;8.80;84.20;;;;;;5034130;28;20213;-85
2023/12/16 02:58:44;;;;;;;12.50;5.63;;;8.70;85.20;;;;;;5034129;28;20582;-84
2023/12/16 03:01:09;;;;;;;11.63;6.17;;;8.70;86.20;;;;;;5034092;28;20576;-84
2023/12/16 03:03:39;;;;;;;14.23;5.37;;;8.70;85.60;;;;;;5033576;28;20177;-85
2023/12/16 03:06:09;;;;;;;17.27;5.63;;;8.70;88.20;;;;;;5033957;28;20170;-84
2023/12/16 03:08:35;;;;;;;12.30;5.17;;;8.60;88.00;;;;;;5033713;28;20196;-84
2023/12/16 03:11:02;;;;;;;13.13;4.93;;;8.60;90.00;;;;;;5033253;28;20227;-85
2023/12/16 03:13:28;;;;;;;10.80;4.93;;;8.50;90.50;;;;;;5032682;28;20200;-85
2023/12/16 03:15:54;;;;;;;17.03;5.97;;;8.50;91.80;;;;;;5033828;28;20614;-86
2023/12/16 03:18:20;;;;;;;14.63;5.60;;;8.50;91.80;;;;;;5033010;28;20186;-85
2023/12/16 03:20:45;;;;;;;11.40;5.30;;;8.50;91.90;;;;;;5033442;28;20198;-83
2023/12/16 03:23:11;;;;;;;13.83;5.97;;;8.50;91.50;;;;;;5033322;28;20660;-85
2023/12/16 03:25:37;;;;;;;12.57;5.60;;;8.50;91.40;;;;;;5033031;28;20576;-85
2023/12/16 03:28:04;;;;;;;12.73;5.57;;;8.60;89.60;;;;;;5033227;28;20169;-84
2023/12/16 03:30:30;;;;;;;16.87;6.00;;;8.40;88.80;;;;;;5032565;28;20245;-83
2023/12/16 03:32:55;;;;;;;15.73;6.03;;;8.50;90.50;;;;;;5033044;28;20309;-85
2023/12/16 03:35:22;;;;;;;13.20;5.43;;;8.50;89.50;;;;;;5032412;28;20232;-84
2023/12/16 03:37:48;;;;;;;14.07;5.47;;;8.40;86.10;;;;;;5033027;28;20188;-84
2023/12/16 03:40:14;;;;;;;14.37;5.60;;;8.40;89.60;;;;;;5032943;28;20261;-84
2023/12/16 03:42:39;;;;;;;13.03;5.10;;;8.50;88.70;;;;;;5033397;28;20231;-84
2023/12/16 03:45:05;;;;;;;14.97;5.33;;;8.40;84.70;;;;;;5033614;28;20652;-85
2023/12/16 03:47:35;;;;;;;19.03;5.57;;;8.30;90.10;;;;;;5033159;28;20189;-84
2023/12/16 03:50:00;;;;;;;11.80;5.23;;;8.30;90.70;;;;;;5033332;28;20201;-85
2023/12/16 03:52:26;;;;;;;10.53;4.83;;;8.30;90.90;;;;;;5033612;28;20228;-84
2023/12/16 03:54:52;;;;;;;12.73;5.10;;;8.30;90.90;;;;;;5032689;28;20612;-85
2023/12/16 03:57:18;;;;;;;10.83;4.87;;;8.20;91.50;;;;;;5033495;28;20173;-84
2023/12/16 03:59:43;;;;;;;16.03;5.47;;;8.20;92.10;;;;;;5031866;28;20570;-85
2023/12/16 04:02:09;;;;;;;10.13;4.63;;;8.30;91.00;;;;;;5032135;28;20177;-84
2023/12/16 04:04:35;;;;;;;9.43;4.87;;;8.20;90.30;;;;;;5031846;28;20177;-84
2023/12/16 04:07:01;;;;;;;14.80;5.40;;;8.10;91.10;;;;;;5032671;28;20276;-84
2023/12/16 04:09:28;;;;;;;13.17;4.90;;;8.00;93.00;;;;;;5032180;28;20217;-84
2023/12/16 04:11:54;;;;;;;8.77;4.80;;;8.10;94.00;;;;;;5032315;28;20237;-84
2023/12/16 04:14:20;;;;;;;15.40;5.03;;;8.00;93.90;;;;;;5031805;28;20177;-84
2023/12/16 04:16:46;;;;;;;16.10;5.23;;;8.10;94.40;;;;;;5032114;28;20184;-84
2023/12/16 04:19:12;;;;;;;10.77;4.53;;;8.00;94.60;;;;;;5031698;28;20264;-85
2023/12/16 04:21:39;;;;;;;12.27;4.63;;;8.00;94.50;;;;;;5031426;28;20174;-83
2023/12/16 04:24:05;;;;;;;10.93;4.77;;;7.90;95.00;;;;;;5032971;28;20185;-83
2023/12/16 04:26:31;;;;;;;11.70;5.13;;;7.90;94.90;;;;;;5031937;28;20209;-84
2023/12/16 04:28:56;;;;;;;9.97;4.47;;;7.90;95.10;;;;;;5032030;28;20213;-83
2023/12/16 04:31:22;;;;;;;12.00;4.50;;;7.90;93.50;;;;;;5032141;28;20213;-83
2023/12/16 04:33:50;;;;;;;10.37;5.03;;;7.90;93.50;;;;;;5032264;28;20216;-84
2023/12/16 04:36:17;;;;;;;10.90;4.50;;;7.90;93.40;;;;;;5031023;28;20178;-84
2023/12/16 04:38:43;;;;;;;10.50;4.20;;;7.80;93.80;;;;;;5032276;28;20808;-84
2023/12/16 04:41:14;;;;;;;14.13;4.90;;;7.80;94.10;;;;;;5032015;28;20664;-84
2023/12/16 04:43:40;;;;;;;13.77;4.67;;;7.90;93.70;;;;;;5032109;28;20331;-84
2023/12/16 04:46:07;;;;;;;12.53;4.13;;;7.90;91.10;;;;;;5030689;28;20268;-83
2023/12/16 04:48:33;;;;;;;12.20;4.97;;;7.90;90.00;;;;;;5031798;28;20568;-83
2023/12/16 04:51:06;;;;;;;13.53;4.53;;;7.90;89.40;;;;;;5031138;28;20201;-83
2023/12/16 04:53:32;;;;;;;14.10;3.93;;;7.90;89.60;;;;;;5031723;28;20641;-84
2023/12/16 04:55:58;;;;;;;12.73;4.97;;;7.90;88.70;;;;;;5031877;28;20177;-84
2023/12/16 04:58:25;;;;;;;14.10;4.17;;;7.90;90.20;;;;;;5031185;28;20180;-84
2023/12/16 05:00:51;;;;;;;13.93;4.73;;;7.90;90.60;;;;;;5030858;28;20197;-83
2023/12/16 05:03:17;;;;;;;16.07;4.67;;;7.90;89.50;;;;;;5031277;28;20258;-84
2023/12/16 05:05:42;;;;;;;15.70;4.70;;;7.90;89.50;;;;;;5044193;28;20180;-84
2023/12/16 05:08:09;;;;;;;10.63;4.20;;;8.00;87.30;;;;;;5052744;28;20195;-84
2023/12/16 05:10:34;;;;;;;10.57;4.00;;;7.90;86.90;;;;;;5051525;28;20192;-84
2023/12/16 05:13:00;;;;;;;10.63;4.50;;;7.90;86.90;;;;;;5051094;28;20605;-84
2023/12/16 05:15:25;;;;;;;13.30;4.77;;;7.90;86.80;;;;;;5051290;28;20231;-83
2023/12/16 05:17:51;;;;;;;11.90;4.10;;;7.90;87.00;;;;;;5051188;28;20616;-84
2023/12/16 05:20:17;;;;;;;13.40;4.30;;;7.90;86.00;;;;;;5050637;28;20245;-84
2023/12/16 05:22:43;;;;;;;16.90;4.77;;;7.90;85.90;;;;;;5050108;28;20188;-84
2023/12/16 05:25:08;;;;;;;14.23;4.20;;;7.90;81.80;;;;;;5052278;28;20593;-84
2023/12/16 05:27:34;;;;;;;16.90;5.13;;;8.00;81.90;;;;;;5051592;28;20180;-84
2023/12/16 05:30:02;;;;;;;14.13;4.10;;;8.00;81.30;;;;;;5051057;28;20169;-84
2023/12/16 05:32:27;;;;;;;12.80;3.60;;;8.00;81.50;;;;;;5050398;28;20250;-85
2023/12/16 05:34:55;;;;;;;10.13;3.33;;;8.10;80.30;;;;;;5051440;28;20169;-84
2023/12/16 05:37:20;;;;;;;9.33;3.77;;;8.10;78.10;;;;;;5050137;28;20668;-84
2023/12/16 05:39:46;;;;;;;11.23;4.40;;;8.20;76.90;;;;;;5051135;28;20181;-84
2023/12/16 05:42:12;;;;;;;13.03;3.70;;;8.40;73.10;;;;;;5050374;28;20625;-85
2023/12/16 05:44:38;;;;;;;13.67;3.87;;;8.40;68.10;;;;;;5051087;28;20177;-84
2023/12/16 05:47:05;;;;;;;13.17;3.83;;;8.50;63.40;;;;;;5050547;28;20173;-84
2023/12/16 05:49:30;;;;;;;13.00;4.10;;;8.50;64.80;;;;;;5051211;28;20544;-84
2023/12/16 05:51:56;;;;;;;10.70;3.30;;;8.50;67.70;;;;;;5049693;28;20219;-84
2023/12/16 05:54:24;;;;;;;14.43;3.80;;;8.40;69.30;;;;;;5051282;28;20181;-85
2023/12/16 05:56:50;;;;;;;11.30;3.60;;;8.40;66.50;;;;;;5050128;28;20288;-84
2023/12/16 05:59:17;;;;;;;12.13;3.53;;;8.40;67.60;;;;;;5053003;28;20598;-85
2023/12/16 06:01:44;;;;;;;14.30;4.00;;;8.40;67.70;;;;;;5054316;28;20575;-85
2023/12/16 06:04:09;;;;;;;15.87;3.40;;;8.40;64.60;;;;;;5054705;28;20176;-85
2023/12/16 06:06:35;;;;;;;10.87;3.53;;;8.30;63.60;;;;;;5054390;28;20208;-84
2023/12/16 06:09:01;;;;;;;17.40;4.03;;;8.40;61.90;;;;;;5054304;28;20243;-85
2023/12/16 06:11:27;;;;;;;12.33;3.43;;;8.40;59.90;;;;;;5053263;28;20657;-85
2023/12/16 06:13:53;;;;;;;12.50;3.80;;;8.50;62.50;;;;;;5055088;28;20201;-84
2023/12/16 06:16:19;;;;;;;15.33;3.97;;;8.40;63.30;;;;;;5037714;28;20178;-83
2023/12/16 06:18:46;;;;;;;9.77;3.03;;;8.40;63.70;;;;;;5033618;28;20746;-84
2023/12/16 06:21:12;;;;;;;11.73;3.83;;;8.40;63.10;;;;;;5034324;28;20173;-85
2023/12/16 06:23:38;;;;;;;15.00;3.90;;;8.50;62.70;;;;;;5034123;28;20186;-85
2023/12/16 06:26:03;;;;;;;11.77;3.73;;;8.50;60.10;;;;;;5033656;28;20177;-83
2023/12/16 06:28:29;;;;;;;12.17;3.40;;;8.50;58.80;;;;;;5033911;28;20645;-84
2023/12/16 06:30:55;;;;;;;8.93;3.63;;;8.60;59.90;;;;;;5034224;28;20259;-84
2023/12/16 06:33:22;;;;;;;11.87;3.73;;;8.40;61.70;;;;;;5033873;28;20217;-84
2023/12/16 06:35:48;;;;;;;13.77;4.10;;;8.50;65.00;;;;;;5033210;28;20285;-83
2023/12/16 06:38:14;;;;;;;12.23;3.87;;;8.50;63.80;;;;;;5034452;28;20268;-85
2023/12/16 06:40:40;;;;;;;14.70;4.17;;;8.50;63.20;;;;;;5032820;28;20174;-84
2023/12/16 06:43:06;;;;;;;11.57;3.47;;;8.60;62.70;;;;;;5036032;28;20170;-84
2023/12/16 06:45:32;;;;;;;8.37;3.37;;;8.70;58.60;;;;;;5039822;28;20178;-84
2023/12/16 06:47:58;;;;;;;8.60;3.43;;;8.50;59.10;;;;;;5042009;28;20231;-86
2023/12/16 06:50:24;;;;;;;13.60;4.07;;;8.60;60.30;;;;;;5040485;28;20536;-84
2023/12/16 06:52:50;;;;;;;9.67;4.07;;;8.60;60.30;;;;;;5035078;28;20213;-83
2023/12/16 06:55:15;;;;;;;11.97;3.47;;;8.60;62.10;;;;;;5032956;28;20216;-84
2023/12/16 06:57:41;;;;;;;16.50;4.13;;;8.50;64.90;;;;;;5033413;28;20185;-85
2023/12/16 07:00:09;;;;;;;9.70;3.83;;;8.60;65.00;;;;;;5034875;28;20166;-83
2023/12/16 07:02:36;;;;;;;9.87;3.60;;;8.80;61.00;;;;;;5033462;28;20170;-84
2023/12/16 07:05:02;;;;;;;9.77;3.77;;;8.90;56.90;;;;;;5032693;28;20193;-84
2023/12/16 07:07:28;;;;;;;10.93;3.73;;;8.80;58.10;;;;;;5033544;28;20208;-84
2023/12/16 07:09:54;;;;;;;11.07;3.30;;;8.80;59.00;;;;;;5032013;28;20552;-85
2023/12/16 07:12:19;;;;;;;12.80;3.60;;;8.90;57.20;;;;;;5033127;28;20666;-84
2023/12/16 07:14:45;;;;;;;10.70;3.60;;;8.90;55.90;;;;;;5034298;28;20569;-84
2023/12/16 07:17:11;;;;;;;10.07;3.83;;;8.90;58.00;;;;;;5033022;28;20188;-84
2023/12/16 07:19:37;;;;;;;12.47;3.47;;;8.90;59.30;;;;;;5032895;28;20216;-83
2023/12/16 07:22:03;;;;;;;13.30;3.40;;;8.90;58.20;;;;;;5033671;28;20891;-84
2023/12/16 07:24:29;;;;;;;15.63;3.67;;;8.70;64.70;;;;;;5032368;28;20181;-84
2023/12/16 07:26:54;;;;;;;10.57;4.03;;;8.70;68.90;;;;;;5034182;28;20505;-87
2023/12/16 07:29:20;;;;;;;13.83;4.27;;;8.60;70.90;;;;;;5033166;28;20180;-85
2023/12/16 07:31:50;;;;;;;14.20;4.33;;;8.60;69.70;;;;;;5033200;28;20685;-85
2023/12/16 07:34:16;;;;;;;13.40;4.13;;;8.70;69.70;;;;;;5032242;28;20173;-83
2023/12/16 07:36:43;;;;;;;11.77;4.70;;;8.70;69.80;;;;;;5026616;28;20623;-83
2023/12/16 07:39:09;;;;;;;12.03;4.20;;;8.70;69.90;;;;;;5032449;28;20188;-85
2023/12/16 07:41:35;;;;;;;14.27;4.70;;;8.70;70.90;;;;;;5032428;28;20264;-85
2023/12/16 07:44:01;;;;;;;14.60;4.53;;;8.80;68.60;;;;;;5031064;28;20182;-85
2023/12/16 07:46:27;;;;;;;12.93;3.77;;;8.80;69.40;;;;;;5033559;28;20656;-84
2023/12/16 07:48:53;;;;;;;13.00;4.20;;;8.80;69.10;;;;;;5032908;28;20189;-86
2023/12/16 07:51:19;;;;;;;10.63;3.83;;;8.70;70.80;;;;;;5034094;28;20181;-87
2023/12/16 07:53:48;;;;;;;12.70;4.17;;;8.80;74.00;;;;;;5031388;28;20229;-85
2023/12/16 07:56:26;;;;;;;11.70;3.90;;;8.90;70.00;;;;;;5032670;28;20170;-84
2023/12/16 07:58:52;;;;;;;12.30;4.10;;;8.90;70.70;;;;;;5031654;28;20186;-84
2023/12/16 08:01:19;;;;;;;15.10;4.20;;;8.90;68.30;;;;;;5032112;28;20231;-84
2023/12/16 08:03:48;;;;;;;15.67;4.40;;;8.90;69.60;;;;;;5032589;28;20173;-86
2023/12/16 08:06:16;;;;;;;13.63;4.57;;;8.90;71.20;;;;;;5032020;28;20235;-84
2023/12/16 08:08:42;;;;;;;9.33;3.90;;;8.80;70.70;;;;;;5031194;28;20198;-85
2023/12/16 08:11:09;;;;;;;13.07;4.30;;;8.90;70.80;;;;;;5032611;28;20193;-85
2023/12/16 08:13:35;;;;;;;12.97;4.30;;;8.90;72.90;;;;;;5032041;28;20190;-84
2023/12/16 08:16:02;;;;;;;9.87;4.20;;;8.90;74.40;;;;;;5031538;28;20166;-85
2023/12/16 08:18:28;;;;;;;15.47;4.83;;;8.90;75.90;;;;;;5031863;28;20612;-87
2023/12/16 08:20:54;;;;;;;15.37;4.73;;;9.00;72.50;;;;;;5032079;28;20541;-88
2023/12/16 08:23:20;;;;;;;12.40;4.83;;;9.00;74.40;;;;;;5031100;28;20173;-86
2023/12/16 08:25:47;;;;;;;16.43;4.73;;;9.00;74.70;;;;;;5032213;28;20174;-88
2023/12/16 08:28:13;;;;;;;14.23;5.07;;;9.00;74.90;;;;;;5031894;28;20186;-87
2023/12/16 08:30:39;;;;;;;18.10;4.87;;;9.10;75.60;;;;;;5032541;28;20203;-90
2023/12/16 08:33:05;;;;;;;13.13;4.57;;;9.10;75.70;;;;;;5017320;28;20323;-87
2023/12/16 08:35:30;;;;;;;10.47;4.13;;;9.10;74.30;;;;;;5028986;28;20228;-87
2023/12/16 08:37:56;;;;;;;17.03;4.30;;;9.10;76.40;;;;;;5028349;28;20272;-86
2023/12/16 08:40:23;;;;;;;15.63;4.60;;;9.00;77.00;;;;;;5028782;28;20908;-87
2023/12/16 08:42:48;;;;;;;13.37;4.20;;;9.00;79.50;;;;;;5029391;28;20181;-88
2023/12/16 08:45:14;;;;;;;14.83;4.43;;;9.20;78.10;;;;;;5028175;28;20177;-91
2023/12/16 08:47:40;;;;;;;13.73;4.33;;;9.20;76.70;;;;;;5028076;28;20236;-89
2023/12/16 08:50:07;;;;;;;11.67;4.10;;;9.20;77.10;;;;;;5028534;28;20213;-90
2023/12/16 08:52:33;;;;;;;8.80;4.13;;;9.20;77.50;;;;;;5028620;28;20221;-90
2023/12/16 08:55:00;;;;;;;11.70;4.40;;;9.30;75.60;;;;;;5028293;28;20282;-87
2023/12/16 08:57:30;;;;;;;12.73;4.10;;;9.30;75.70;;;;;;5026334;28;20189;-86
2023/12/16 08:59:57;;;;;;;12.40;5.17;;;9.40;73.60;;;;;;5028137;28;20181;-89
2023/12/16 09:02:24;;;;;;;19.50;5.37;;;9.40;72.90;;;;;;5027691;28;20189;-88
2023/12/16 09:04:50;;;;;;;12.47;4.50;;;9.40;73.70;;;;;;5029177;28;20169;-88
2023/12/16 09:07:16;;;;;;;11.23;4.50;;;9.40;74.00;;;;;;5027685;28;20641;-88
2023/12/16 09:09:44;;;;;;;13.97;4.50;;;9.30;78.60;;;;;;5027295;28;20201;-88
2023/12/16 09:12:10;;;;;;;14.40;4.97;;;9.40;78.30;;;;;;5026916;28;20208;-87
2023/12/16 09:14:37;;;;;;;12.57;4.43;;;9.40;78.40;;;;;;5028182;28;20646;-88
2023/12/16 09:17:03;;;;;;;11.10;4.67;;;9.50;77.80;;;;;;5027745;28;20173;-88
2023/12/16 09:19:29;;;;;;;13.00;4.80;;;9.60;75.80;;;;;;5026573;28;20620;-82
2023/12/16 09:22:02;;;;;;;13.80;5.10;;;9.50;75.30;;;;;;5029694;28;20173;-84
2023/12/16 09:24:27;;;;;;;10.57;4.23;;;9.50;75.00;;;;;;5037426;28;20200;-95
2023/12/16 09:26:53;;;;;;;18.53;5.97;;;9.70;74.10;;;;;;5035271;28;20182;-86
2023/12/16 09:29:22;;;;;;;14.97;4.77;;;9.70;71.50;;;;;;5035114;28;20177;-91
2023/12/16 09:31:48;;;;;;;14.40;5.23;;;9.80;71.70;;;;;;5030690;28;20222;-83
2023/12/16 09:34:14;;;;;;;14.03;4.67;;;9.80;72.50;;;;;;5033772;28;20637;-85
2023/12/16 09:36:39;;;;;;;13.87;5.33;;;9.70;72.30;;;;;;5034034;28;20184;-94
2023/12/16 09:39:05;;;;;;;12.83;4.30;;;9.70;72.10;;;;;;5031725;28;20487;-92
2023/12/16 09:41:31;;;;;;;20.07;4.67;;;9.70;75.20;;;;;;5033769;28;20182;-95
2023/12/16 09:43:58;;;;;;;14.30;4.53;;;9.80;76.20;;;;;;5035966;28;20177;-91
2023/12/16 09:46:33;;;;;;;17.00;4.40;;;10.00;70.70;;;;;;5036859;28;20584;-88
2023/12/16 09:48:59;;;;;;;15.93;4.67;;;10.10;64.20;;;;;;5037254;28;20205;-94
2023/12/16 09:51:28;;;;;;;13.50;4.70;;;10.10;62.60;;;;;;5034299;28;20208;-94
2023/12/16 09:53:55;;;;;;;14.50;5.23;;;10.10;64.80;;;;;;5036791;28;20196;-89
2023/12/16 09:56:21;;;;;;;11.70;4.30;;;10.00;67.30;;;;;;5031412;28;20174;-89
2023/12/16 09:58:51;;;;;;;16.90;5.70;;;10.10;68.10;;;;;;5036542;28;20174;-93
2023/12/16 10:01:17;;;;;;;16.60;4.60;;;10.00;72.30;;;;;;5043551;28;20261;-92
2023/12/16 10:03:46;;;;;;;13.20;4.67;;;10.10;70.80;;;;;;5036709;28;20682;-90
2023/12/16 10:06:12;;;;;;;13.00;5.03;;;10.10;69.90;;;;;;5037783;28;20261;-87
2023/12/16 10:08:40;;;;;;;17.10;4.97;;;10.20;68.80;;;;;;5018529;28;20185;-84
2023/12/16 10:11:06;;;;;;;17.23;5.23;;;10.10;69.20;;;;;;5037470;28;20197;-92
2023/12/16 10:13:33;;;;;;;11.97;4.83;;;10.20;70.20;;;;;;5033443;28;20206;-88
2023/12/16 10:16:00;;;;;;;14.37;5.53;;;10.20;70.20;;;;;;5034102;28;20177;-90
2023/12/16 10:18:27;;;;;;;19.73;6.27;;;10.20;70.60;;;;;;5029453;28;20209;-89
2023/12/16 10:20:55;;;;;;;14.83;5.13;;;10.20;69.70;;;;;;5031665;28;20162;-88
2023/12/16 10:23:23;;;;;;;17.50;5.20;;;10.20;66.80;;;;;;5033167;28;20655;-88
2023/12/16 10:25:49;;;;;;;15.33;5.10;;;10.20;71.10;;;;;;5035063;28;20181;-89
2023/12/16 10:28:15;;;;;;;18.37;5.13;;;10.20;72.80;;;;;;5034280;28;20173;-89
2023/12/16 10:30:55;;;;;;;;;;;;;;;;;;;;;
2023/12/16 10:33:22;;;;;;;14.17;4.67;;;10.20;75.80;;;;;;5034132;28;20202;-89
2023/12/16 10:35:48;;;;;;;13.83;4.90;;;10.30;72.50;;;;;;5027363;28;20174;-88
2023/12/16 10:38:14;;;;;;;15.83;5.23;;;10.30;71.10;;;;;;5029263;28;20601;-88
2023/12/16 10:40:41;;;;;;;13.27;4.83;;;10.30;74.70;;;;;;5030899;28;20204;-86
2023/12/16 10:43:08;;;;;;;16.67;5.23;;;10.30;75.60;;;;;;5030702;28;20170;-89
2023/12/16 10:45:34;;;;;;;17.63;5.40;;;10.30;75.60;;;;;;5031900;28;20189;-90
2023/12/16 10:48:02;;;;;;;11.23;4.50;;;10.20;77.40;;;;;;5031748;28;20171;-88
2023/12/16 10:50:31;;;;;;;12.10;5.13;;;10.20;80.70;;;;;;5031031;28;20192;-89
2023/12/16 10:52:59;;;;;;;13.73;5.00;;;10.20;83.20;;;;;;5030636;28;20636;-88
2023/12/16 10:55:30;;;;;;;14.73;5.10;;;10.30;83.20;;;;;;5029589;28;20189;-87
2023/12/16 10:58:16;;;;;;;14.13;4.97;;;10.30;79.60;;;;;;5029415;28;20190;-86
2023/12/16 11:00:51;;;;;;;15.27;4.83;;;10.30;82.50;;;;;;5030070;28;20208;-85
2023/12/16 11:03:28;;;;;;;16.07;5.93;;;10.50;79.20;;;;;;5028115;28;20256;-87
2023/12/16 11:06:02;;;;;;;15.57;5.50;;;10.50;79.70;;;;;;5030976;28;20181;-86
2023/12/16 11:08:28;;;;;;;15.43;5.47;;;10.50;79.70;;;;;;5037051;28;20193;-86
2023/12/16 11:10:55;;;;;;;14.70;4.67;;;10.50;78.90;;;;;;5036138;28;20206;-86
2023/12/16 11:13:22;;;;;;;13.80;4.33;;;10.60;76.80;;;;;;5029832;28;20236;-85
2023/12/16 11:15:56;;;;;;;12.27;5.00;;;10.70;73.40;;;;;;5027932;28;20641;-86
2023/12/16 11:18:29;;;;;;;14.10;5.53;;;10.70;75.20;;;;;;5027869;28;20190;-88
2023/12/16 11:21:01;;;;;;;13.53;5.10;;;10.80;73.20;;;;;;5031651;28;20634;-85
2023/12/16 11:23:29;;;;;;;14.53;4.50;;;10.80;73.60;;;;;;5028797;28;20720;-87
2023/12/16 11:25:55;;;;;;;14.47;5.27;;;10.70;77.00;;;;;;5030242;28;20289;-90
2023/12/16 11:28:21;;;;;;;13.20;4.60;;;10.80;77.30;;;;;;5030511;28;20185;-89
2023/12/16 11:30:47;;;;;;;13.47;5.30;;;10.70;80.60;;;;;;5030888;28;20514;-85
2023/12/16 11:33:13;;;;;;;17.63;6.03;;;10.60;85.70;;;;;;5029924;28;20228;-86
2023/12/16 11:35:53;;;;;;;14.63;5.83;;;10.60;87.40;;;;;;5030780;28;20179;-89
2023/12/16 11:38:41;;;;;;;14.40;5.87;;;10.60;86.80;;;;;;5030076;28;20561;-86
2023/12/16 11:41:07;;;;;;;18.43;6.00;;;10.60;88.60;;;;;;5029240;28;20668;-90
2023/12/16 11:44:07;;;;;;;14.23;5.03;;;10.70;86.00;;;;;;5026509;28;20188;-88
2023/12/16 11:46:41;;;;;;;14.13;4.80;;;10.70;87.10;;;;;;4987715;28;20301;-88
2023/12/16 11:49:10;;;;;;;18.40;5.47;;;10.70;88.90;;;;;;5027689;28;20176;-87
2023/12/16 11:51:38;;;;;;;19.07;6.23;;;10.80;87.10;;;;;;5030056;28;20170;-89
2023/12/16 11:54:05;;;;;;;17.00;6.17;;;10.70;88.40;;;;;;5029995;28;20178;-89
2023/12/16 11:56:31;;;;;;;18.20;6.67;;;10.70;90.90;;;;;;5029696;28;20170;-86
2023/12/16 11:58:57;;;;;;;20.50;6.57;;;10.70;91.60;;;;;;5029530;28;20244;-89
2023/12/16 12:01:31;;;;;;;17.77;6.90;;;10.60;93.20;;;;;;5030404;28;20297;-88
2023/12/16 12:03:58;;;;;;;18.53;6.90;;;10.60;95.40;;;;;;5030179;28;20185;-88
2023/12/16 12:06:25;;;;;;;16.47;6.97;;;10.60;96.20;;;;;;5029453;28;20188;-87
2023/12/16 12:08:51;;;;;;;13.90;7.17;;;10.60;96.80;;;;;;5030779;28;20268;-89
2023/12/16 12:11:18;;;;;;;21.53;7.43;;;10.60;98.00;;;;;;5029468;28;20174;-87
2023/12/16 12:13:44;;;;;;;18.93;7.13;;;10.60;98.70;;;;;;5029805;28;20701;-86
2023/12/16 12:16:13;;;;;;;18.03;7.07;;;10.60;99.30;;;;;;5030370;28;20196;-89
2023/12/16 12:18:40;;;;;;;19.83;7.43;;;10.70;99.40;;;;;;5029906;28;20165;-92
2023/12/16 12:21:08;;;;;;;19.33;7.73;;;10.60;99.00;;;;;;5029059;28;20186;-88
2023/12/16 12:23:34;;;;;;;15.97;7.10;;;10.70;97.40;;;;;;5029807;28;20205;-94
2023/12/16 12:26:03;;;;;;;24.03;8.17;;;10.70;98.80;;;;;;5029433;28;20287;-87
2023/12/16 12:28:28;;;;;;;19.40;7.63;;;10.70;99.90;;;;;;5027762;28;20225;-85
2023/12/16 12:31:08;;;;;;;20.73;8.43;;;10.70;99.90;;;;;;5027690;28;20232;-86
2023/12/16 12:33:34;;;;;;;20.43;8.73;;;10.80;99.90;;;;;;5027665;28;20642;-88
2023/12/16 12:36:01;;;;;;;18.17;9.23;;;10.90;99.90;;;;;;5028110;28;20173;-89
2023/12/16 12:38:33;;;;;;;22.93;9.10;;;10.90;99.90;;;;;;5028674;28;20860;-87
2023/12/16 12:41:02;;;;;;;23.73;9.53;;;10.90;99.90;;;;;;5031895;28;20630;-89
2023/12/16 12:43:31;;;;;;;20.90;8.97;;;10.90;99.90;;;;;;5031293;28;20183;-84